Main page
METAR-TAF:

METAR-TAF

Airports :

Oslo, Norway

Oslo Airport

latitude: 60-12N, longitude: 011-05E, elevation: 208 m

Current weather observation

The report was made 39 minutes ago, at 11:20 UTC
Wind 9 kt from the North, varying between North/Northwest and Northeast
Temperature 17°C
Humidity 48%
Pressure 1014 hPa
Visibility 10 km or more
Few clouds at a height of 4200 ft
Broken clouds at a height of 6900 ft

METAR: ENGM 211120Z 01009KT 330V050 9999 FEW042 BKN069 17/06 Q1014 NOSIG

Time: 13:59 (11:59 UTC)

Forecast

Forecast valid from 21 at 06 UTC to 22 at 06 UTC
Wind 5 kt from the North
Visibility 10 km or more
Few clouds at a height of 1200 ft
Scattered clouds at a height of 3000 ft
Temporary
from 21 at 16 UTC to 21 at 22 UTC
Scattered clouds at a height of 3000 ft, Cumulonimbus.

TAF: ENGM 2106/2206 36005KT 9999 FEW012 SCT030 TEMPO 2116/2122 SCT030CB

Weather observations and forecasts of more than 4000 airports (METAR and TAF reports).

The available stations are represented by yellow and red dots on the map.

Hover mouse over dot to see the name of the station.

Then click to see weather observations and forecasts.

To change the map : click on the green buttons with a black cross to zoom in, on the green button with a dash to zoom out, or on the green arrows for adjacent maps.


METAR-TAF: